createdAt,value
2023-05-13T00:02:26.101Z,5.10
2023-05-13T00:04:53.078Z,4.25
2023-05-13T00:07:20.093Z,4.40
2023-05-13T00:09:49.466Z,4.85
2023-05-13T00:12:16.558Z,4.85
2023-05-13T00:14:43.642Z,4.47
2023-05-13T00:17:10.782Z,4.55
2023-05-13T00:19:37.870Z,4.47
2023-05-13T00:22:05.060Z,5.40
2023-05-13T00:24:32.221Z,4.85
2023-05-13T00:26:59.208Z,4.82
2023-05-13T00:29:26.223Z,5.25
2023-05-13T00:31:53.238Z,4.90
2023-05-13T00:34:20.340Z,4.53
2023-05-13T00:36:47.240Z,4.65
2023-05-13T00:39:14.269Z,5.07
2023-05-13T00:41:44.168Z,4.78
2023-05-13T00:44:13.819Z,5.32
2023-05-13T00:46:41.588Z,4.65
2023-05-13T00:49:09.253Z,7.03
2023-05-13T00:51:36.993Z,5.28
2023-05-13T00:54:05.115Z,4.97
2023-05-13T00:56:32.124Z,4.70
2023-05-13T00:58:59.251Z,4.65
2023-05-13T01:01:51.234Z,5.00
2023-05-13T01:04:44.344Z,4.90
2023-05-13T01:07:48.036Z,5.07
2023-05-13T01:10:27.038Z,5.07
2023-05-13T01:12:58.885Z,4.85
2023-05-13T01:15:27.512Z,5.40
2023-05-13T01:18:15.471Z,5.10
2023-05-13T01:20:43.934Z,4.85
2023-05-13T01:23:14.274Z,5.07
2023-05-13T01:25:41.762Z,4.78
2023-05-13T01:28:09.683Z,4.57
2023-05-13T01:30:37.115Z,4.70
2023-05-13T01:33:04.579Z,5.00
2023-05-13T01:35:32.198Z,5.07
2023-05-13T01:38:00.940Z,4.88
2023-05-13T01:40:32.646Z,5.53
2023-05-13T01:43:00.941Z,5.28
2023-05-13T01:45:30.167Z,5.13
2023-05-13T01:47:57.687Z,5.10
2023-05-13T01:50:26.644Z,5.20
2023-05-13T01:52:53.680Z,5.07
2023-05-13T01:55:20.715Z,4.93
2023-05-13T01:57:47.657Z,4.85
2023-05-13T02:00:16.259Z,5.03
2023-05-13T02:02:43.263Z,4.93
2023-05-13T02:05:10.638Z,4.78
2023-05-13T02:07:37.606Z,5.22
2023-05-13T02:10:04.961Z,5.47
2023-05-13T02:12:31.917Z,5.20
2023-05-13T02:14:59.033Z,4.97
2023-05-13T02:17:26.034Z,5.15
2023-05-13T02:19:53.089Z,5.00
2023-05-13T02:22:20.184Z,4.75
2023-05-13T02:24:47.171Z,4.97
2023-05-13T02:27:16.746Z,4.88
2023-05-13T02:29:43.669Z,5.30
2023-05-13T02:32:10.654Z,5.20
2023-05-13T02:34:37.901Z,5.78
2023-05-13T02:37:05.985Z,4.60
2023-05-13T02:39:33.030Z,4.95
2023-05-13T02:41:59.966Z,4.82
2023-05-13T02:44:26.914Z,5.63
2023-05-13T02:46:53.841Z,5.50
2023-05-13T02:49:21.064Z,5.28
2023-05-13T02:51:48.744Z,4.82
2023-05-13T02:54:16.085Z,5.10
2023-05-13T02:56:43.051Z,5.25
2023-05-13T02:59:10.008Z,5.10
2023-05-13T03:01:37.059Z,5.68
2023-05-13T03:04:04.257Z,5.13
2023-05-13T03:06:31.881Z,4.72
2023-05-13T03:09:01.272Z,5.53
2023-05-13T03:11:28.227Z,4.93
2023-05-13T03:13:55.060Z,5.07
2023-05-13T03:16:22.032Z,5.30
2023-05-13T03:18:49.156Z,4.95
2023-05-13T03:21:16.068Z,4.93
2023-05-13T03:23:43.006Z,5.47
2023-05-13T03:26:10.021Z,5.80
2023-05-13T03:28:39.920Z,5.38
2023-05-13T03:31:07.055Z,5.22
2023-05-13T03:33:34.102Z,5.13
2023-05-13T03:36:01.085Z,5.55
2023-05-13T03:38:29.272Z,5.43
2023-05-13T03:40:56.476Z,5.22
2023-05-13T03:43:23.634Z,5.03
2023-05-13T03:45:51.691Z,5.50
2023-05-13T03:48:19.418Z,5.03
2023-05-13T03:50:46.460Z,4.85
2023-05-13T03:53:13.489Z,5.40
2023-05-13T03:55:40.594Z,5.15
2023-05-13T03:58:16.385Z,5.38
2023-05-13T04:00:46.953Z,5.40
2023-05-13T04:03:16.601Z,5.10
2023-05-13T04:05:48.545Z,5.97
2023-05-13T04:08:16.157Z,5.30
2023-05-13T04:10:43.258Z,5.05
2023-05-13T04:13:12.329Z,6.38
2023-05-13T04:15:42.270Z,5.80
2023-05-13T04:18:09.413Z,6.22
2023-05-13T04:20:42.506Z,5.90
2023-05-13T04:23:10.614Z,6.03
2023-05-13T04:25:37.966Z,6.03
2023-05-13T04:28:05.245Z,5.85
2023-05-13T04:30:32.340Z,5.85
2023-05-13T04:32:59.421Z,5.65
2023-05-13T04:35:26.428Z,5.90
2023-05-13T04:37:53.303Z,5.60
2023-05-13T04:40:20.507Z,5.18
2023-05-13T04:42:54.731Z,4.93
2023-05-13T04:45:21.841Z,5.50
2023-05-13T04:47:48.746Z,4.18
2023-05-13T04:50:15.859Z,5.00
2023-05-13T04:52:43.279Z,4.72
2023-05-13T04:55:10.926Z,4.22
2023-05-13T04:57:38.469Z,4.60
2023-05-13T05:00:08.447Z,4.43
2023-05-13T05:02:35.349Z,4.40
2023-05-13T05:05:02.431Z,3.80
2023-05-13T05:07:29.670Z,3.58
2023-05-13T05:09:56.658Z,4.03
2023-05-13T05:12:23.750Z,4.22
2023-05-13T05:14:50.828Z,4.13
2023-05-13T05:17:17.874Z,3.88
2023-05-13T05:19:44.897Z,4.57
2023-05-13T05:22:11.998Z,3.97
2023-05-13T05:24:42.350Z,3.97
2023-05-13T05:27:09.051Z,3.50
2023-05-13T05:29:36.039Z,3.10
2023-05-13T05:32:03.149Z,3.65
2023-05-13T05:34:30.309Z,3.90
2023-05-13T05:36:57.426Z,4.15
2023-05-13T05:39:24.260Z,3.55
2023-05-13T05:42:04.229Z,3.67
2023-05-13T05:44:31.248Z,3.60
2023-05-13T05:46:58.225Z,3.50
2023-05-13T05:49:25.269Z,3.90
2023-05-13T05:51:52.315Z,2.90
2023-05-13T05:54:19.409Z,2.80
2023-05-13T05:56:48.512Z,3.90
2023-05-13T05:59:15.552Z,3.30
2023-05-13T06:01:42.707Z,2.80
2023-05-13T06:04:09.954Z,2.90
2023-05-13T06:06:37.013Z,3.20
2023-05-13T06:09:04.110Z,3.03
2023-05-13T06:11:31.143Z,2.92
2023-05-13T06:13:58.132Z,3.10
2023-05-13T06:16:25.172Z,2.95
2023-05-13T06:18:52.212Z,3.08
2023-05-13T06:21:19.177Z,3.40
2023-05-13T06:23:46.232Z,3.03
2023-05-13T06:26:15.840Z,3.35
2023-05-13T06:28:42.620Z,2.92
2023-05-13T06:31:09.697Z,3.10
2023-05-13T06:33:36.699Z,2.80
2023-05-13T06:36:04.092Z,3.60
2023-05-13T06:38:31.054Z,2.80
2023-05-13T06:40:58.024Z,2.90
2023-05-13T06:43:25.038Z,2.85
2023-05-13T06:45:52.000Z,2.70
2023-05-13T06:48:18.930Z,2.88
2023-05-13T06:50:47.296Z,2.95
2023-05-13T06:53:14.381Z,2.65
2023-05-13T06:55:44.252Z,2.47
2023-05-13T06:58:11.436Z,2.75
2023-05-13T07:00:40.142Z,2.50
2023-05-13T07:03:07.588Z,3.03
2023-05-13T07:05:35.306Z,2.72
2023-05-13T07:08:06.989Z,2.80
2023-05-13T07:10:34.735Z,2.78
2023-05-13T07:13:02.737Z,2.90
2023-05-13T07:15:29.945Z,2.63
2023-05-13T07:17:57.014Z,2.58
2023-05-13T07:20:24.597Z,2.95
2023-05-13T07:22:52.112Z,3.50
2023-05-13T07:25:19.137Z,2.90
2023-05-13T07:27:46.261Z,2.67
2023-05-13T07:30:14.121Z,2.80
2023-05-13T07:32:41.683Z,3.00
2023-05-13T07:35:10.101Z,3.08
2023-05-13T07:37:37.311Z,2.38
2023-05-13T07:40:06.175Z,2.47
2023-05-13T07:42:33.387Z,2.83
2023-05-13T07:45:00.305Z,2.97
2023-05-13T07:47:29.303Z,3.10
2023-05-13T07:49:56.345Z,2.72
2023-05-13T07:52:23.675Z,2.80
2023-05-13T07:54:50.765Z,2.50
2023-05-13T07:57:17.824Z,2.70
2023-05-13T07:59:45.285Z,2.83
2023-05-13T08:02:12.800Z,2.58
2023-05-13T08:04:40.186Z,3.28
2023-05-13T08:07:07.065Z,2.60
2023-05-13T08:09:33.988Z,2.80
2023-05-13T08:12:00.998Z,2.42
2023-05-13T08:14:28.057Z,2.67
2023-05-13T08:16:55.300Z,3.92
2023-05-13T08:19:22.675Z,2.65
2023-05-13T08:21:51.034Z,2.78
2023-05-13T08:24:18.030Z,2.58
2023-05-13T08:26:45.027Z,2.83
2023-05-13T08:29:14.334Z,2.30
2023-05-13T08:31:45.218Z,2.70
2023-05-13T08:34:13.196Z,2.55
2023-05-13T08:36:40.081Z,2.47
2023-05-13T08:39:08.183Z,2.40
2023-05-13T08:41:35.287Z,2.85
2023-05-13T08:44:08.711Z,2.67
2023-05-13T08:46:38.944Z,3.08
2023-05-13T08:49:08.269Z,2.40
2023-05-13T08:51:35.314Z,2.78
2023-05-13T08:54:03.916Z,2.35
2023-05-13T08:56:30.992Z,2.60
2023-05-13T08:59:01.361Z,2.58
2023-05-13T09:01:29.061Z,2.50
2023-05-13T09:04:00.681Z,2.83
2023-05-13T09:06:28.801Z,2.53
2023-05-13T09:09:03.218Z,2.40
2023-05-13T09:11:30.114Z,2.85
2023-05-13T09:13:58.847Z,2.50
2023-05-13T09:16:29.132Z,2.65
2023-05-13T09:19:01.880Z,2.70
2023-05-13T09:21:32.297Z,2.88
2023-05-13T09:24:18.925Z,2.40
2023-05-13T09:26:49.359Z,2.70
2023-05-13T09:29:17.824Z,2.88
2023-05-13T09:31:47.150Z,2.63
2023-05-13T09:34:15.095Z,2.55
2023-05-13T09:36:42.391Z,2.67
2023-05-13T09:39:09.558Z,2.55
2023-05-13T09:41:36.985Z,2.75
2023-05-13T09:44:04.994Z,2.65
2023-05-13T09:46:34.351Z,2.03
2023-05-13T09:49:01.971Z,2.45
2023-05-13T09:51:31.167Z,2.20
2023-05-13T09:54:07.663Z,2.25
2023-05-13T09:56:36.706Z,2.22
2023-05-13T09:59:05.498Z,2.50
2023-05-13T10:01:35.768Z,2.30
2023-05-13T10:04:06.632Z,2.13
2023-05-13T10:06:36.509Z,2.63
2023-05-13T10:09:08.543Z,2.75
2023-05-13T10:11:36.933Z,2.40
2023-05-13T10:14:06.593Z,2.90
2023-05-13T10:16:33.805Z,2.70
2023-05-13T10:19:01.396Z,2.35
2023-05-13T10:21:28.570Z,2.65
2023-05-13T10:23:57.344Z,2.45
2023-05-13T10:26:28.759Z,2.33
2023-05-13T10:28:57.961Z,2.83
2023-05-13T10:31:26.527Z,2.35
2023-05-13T10:33:57.181Z,2.30
2023-05-13T10:36:56.125Z,2.67
2023-05-13T10:40:01.692Z,2.33
2023-05-13T10:42:43.297Z,2.60
2023-05-13T10:45:11.097Z,2.22
2023-05-13T10:47:38.572Z,2.45
2023-05-13T10:50:22.204Z,2.80
2023-05-13T10:52:49.671Z,2.80
2023-05-13T10:55:19.387Z,2.35
2023-05-13T10:58:09.524Z,2.50
2023-05-13T11:00:38.578Z,2.72
2023-05-13T11:03:30.300Z,2.28
2023-05-13T11:06:18.769Z,2.63
2023-05-13T11:08:48.387Z,2.20
2023-05-13T11:11:21.318Z,2.83
2023-05-13T11:14:18.181Z,2.45
2023-05-13T11:17:08.537Z,2.40
2023-05-13T11:19:37.697Z,2.50
2023-05-13T11:22:10.588Z,2.90
2023-05-13T11:24:38.107Z,2.40
2023-05-13T11:27:20.116Z,2.53
2023-05-13T11:29:57.981Z,2.10
2023-05-13T11:32:53.000Z,2.40
2023-05-13T11:35:34.973Z,2.83
2023-05-13T11:38:03.460Z,2.22
2023-05-13T11:40:32.748Z,2.53
2023-05-13T11:43:01.034Z,2.42
2023-05-13T11:45:28.977Z,2.80
2023-05-13T11:47:56.751Z,2.53
2023-05-13T11:50:30.449Z,2.65
2023-05-13T11:53:00.553Z,2.23
2023-05-13T11:55:32.444Z,2.33
2023-05-13T11:58:00.061Z,2.55
2023-05-13T12:00:32.543Z,2.42
2023-05-13T12:03:00.997Z,3.30
2023-05-13T12:05:28.227Z,3.17
2023-05-13T12:07:59.885Z,2.53
2023-05-13T12:10:28.137Z,2.33
2023-05-13T12:12:55.376Z,2.65
2023-05-13T12:15:23.404Z,2.65
2023-05-13T12:17:51.032Z,2.47
2023-05-13T12:20:19.955Z,2.60
2023-05-13T12:22:47.135Z,2.70
2023-05-13T12:25:33.072Z,2.78
2023-05-13T12:28:00.691Z,2.42
2023-05-13T12:30:35.274Z,2.53
2023-05-13T12:35:29.484Z,2.20
2023-05-13T12:38:01.688Z,2.35
2023-05-13T12:40:28.860Z,2.38
2023-05-13T12:43:00.986Z,2.00
2023-05-13T12:45:32.780Z,2.30
2023-05-13T12:48:01.232Z,2.75
2023-05-13T12:50:29.419Z,2.70
2023-05-13T12:52:58.044Z,2.17
2023-05-13T12:55:27.370Z,2.22
2023-05-13T12:58:02.532Z,2.33
2023-05-13T13:00:30.503Z,2.80
2023-05-13T13:02:57.983Z,2.33
2023-05-13T13:05:25.884Z,2.40
2023-05-13T13:07:52.717Z,2.45
2023-05-13T13:10:19.906Z,2.28
2023-05-13T13:12:46.778Z,2.65
2023-05-13T13:15:13.841Z,2.38
2023-05-13T13:17:41.026Z,2.20
2023-05-13T13:20:08.525Z,2.30
2023-05-13T13:22:38.253Z,2.50
2023-05-13T13:25:06.943Z,2.20
2023-05-13T13:27:35.140Z,2.35
2023-05-13T13:30:02.494Z,2.38
2023-05-13T13:32:29.700Z,2.70
2023-05-13T13:34:58.430Z,2.40
2023-05-13T13:37:25.950Z,3.25
2023-05-13T13:39:52.764Z,2.10
2023-05-13T13:42:20.111Z,2.50
2023-05-13T13:44:47.773Z,2.17
2023-05-13T13:47:15.685Z,2.35
2023-05-13T13:49:42.673Z,2.50
2023-05-13T13:52:10.907Z,2.40
2023-05-13T13:54:37.834Z,2.40
2023-05-13T13:57:05.136Z,2.72
2023-05-13T13:59:32.236Z,2.33
2023-05-13T14:01:59.308Z,2.33
2023-05-13T14:04:28.148Z,2.65
2023-05-13T14:06:58.089Z,2.75
2023-05-13T14:09:25.266Z,2.60
2023-05-13T14:11:54.059Z,2.70
2023-05-13T14:14:21.032Z,2.75
2023-05-13T14:16:48.913Z,2.60
2023-05-13T14:19:18.231Z,2.17
2023-05-13T14:21:48.328Z,2.33
2023-05-13T14:24:15.332Z,2.28
2023-05-13T14:26:42.406Z,2.50
2023-05-13T14:29:09.429Z,2.78
2023-05-13T14:31:36.535Z,2.38
2023-05-13T14:34:06.352Z,2.90
2023-05-13T14:36:34.720Z,2.38
2023-05-13T14:39:01.819Z,2.10
2023-05-13T14:41:29.865Z,2.55
2023-05-13T14:43:56.837Z,3.13
2023-05-13T14:46:24.162Z,2.22
2023-05-13T14:48:52.046Z,2.47
2023-05-13T14:51:19.397Z,2.35
2023-05-13T14:53:46.733Z,2.25
2023-05-13T14:56:13.821Z,3.03
2023-05-13T14:58:42.106Z,2.70
2023-05-13T15:01:09.240Z,2.20
2023-05-13T15:03:36.333Z,2.50
2023-05-13T15:06:03.678Z,2.30
2023-05-13T15:08:31.074Z,2.65
2023-05-13T15:11:00.163Z,2.42
2023-05-13T15:13:28.906Z,2.80
2023-05-13T15:15:59.210Z,2.78
2023-05-13T15:18:38.396Z,2.83
2023-05-13T15:21:05.538Z,2.35
2023-05-13T15:23:33.075Z,2.80
2023-05-13T15:26:00.042Z,2.50
2023-05-13T15:28:27.120Z,2.60
2023-05-13T15:30:54.209Z,2.60
2023-05-13T15:33:26.566Z,2.30
2023-05-13T15:35:53.589Z,2.67
2023-05-13T15:38:20.743Z,3.83
2023-05-13T15:40:50.266Z,2.45
2023-05-13T15:43:17.385Z,2.78
2023-05-13T15:45:44.584Z,2.72
2023-05-13T15:48:14.056Z,2.80
2023-05-13T15:50:41.280Z,2.80
2023-05-13T15:53:08.240Z,2.72
2023-05-13T15:55:37.138Z,2.60
2023-05-13T15:58:04.259Z,2.53
2023-05-13T16:00:32.416Z,2.50
2023-05-13T16:02:59.286Z,2.70
2023-05-13T16:05:26.177Z,3.13
2023-05-13T16:07:56.190Z,2.88
2023-05-13T16:10:23.870Z,2.75
2023-05-13T16:12:51.115Z,2.70
2023-05-13T16:15:19.634Z,2.58
2023-05-13T16:17:46.654Z,2.85
2023-05-13T16:20:13.750Z,2.78
2023-05-13T16:22:52.443Z,2.50
2023-05-13T16:25:19.499Z,3.50
2023-05-13T16:27:48.954Z,2.22
2023-05-13T16:30:17.514Z,3.40
2023-05-13T16:32:55.900Z,2.88
2023-05-13T16:35:24.060Z,2.78
2023-05-13T16:37:51.184Z,2.55
2023-05-13T16:40:18.188Z,2.90
2023-05-13T16:42:46.591Z,2.78
2023-05-13T16:45:20.429Z,2.63
2023-05-13T16:47:47.623Z,3.15
2023-05-13T16:50:15.536Z,2.90
2023-05-13T16:52:42.689Z,3.00
2023-05-13T16:55:13.021Z,3.15
2023-05-13T16:57:47.506Z,2.80
2023-05-13T17:00:21.084Z,2.80
2023-05-13T17:02:49.232Z,3.15
2023-05-13T17:05:16.253Z,3.38
2023-05-13T17:07:43.729Z,3.20
2023-05-13T17:10:15.510Z,3.03
2023-05-13T17:12:42.441Z,2.67
2023-05-13T17:15:09.710Z,2.83
2023-05-13T17:17:49.105Z,3.00
2023-05-13T17:20:18.183Z,2.58
2023-05-13T17:22:50.397Z,3.15
2023-05-13T17:25:17.292Z,3.40
2023-05-13T17:27:43.971Z,2.75
2023-05-13T17:30:11.369Z,2.95
2023-05-13T17:32:38.290Z,2.80
2023-05-13T17:35:05.539Z,3.00
2023-05-13T17:37:32.276Z,2.92
2023-05-13T17:40:03.236Z,2.88
2023-05-13T17:42:30.574Z,2.38
2023-05-13T17:44:57.548Z,2.75
2023-05-13T17:47:24.540Z,3.00
2023-05-13T17:49:51.444Z,2.83
2023-05-13T17:52:20.674Z,2.65
2023-05-13T17:54:51.309Z,2.90
2023-05-13T17:57:18.240Z,3.42
2023-05-13T17:59:45.689Z,2.72
2023-05-13T18:02:17.284Z,3.10
2023-05-13T18:04:44.532Z,2.88
2023-05-13T18:07:11.392Z,3.15
2023-05-13T18:09:38.256Z,3.78
2023-05-13T18:12:05.941Z,3.00
2023-05-13T18:14:35.383Z,4.22
2023-05-13T18:17:02.172Z,4.13
2023-05-13T18:19:29.240Z,3.30
2023-05-13T18:22:05.060Z,3.03
2023-05-13T18:24:32.033Z,3.25
2023-05-13T18:26:59.081Z,4.57
2023-05-13T18:29:26.122Z,4.00
2023-05-13T18:31:53.123Z,2.90
2023-05-13T18:34:19.950Z,3.08
2023-05-13T18:36:47.103Z,2.67
2023-05-13T18:39:14.084Z,3.60
2023-05-13T18:41:41.234Z,3.53
2023-05-13T18:44:08.153Z,3.00
2023-05-13T18:46:35.228Z,2.95
2023-05-13T18:49:04.840Z,3.38
2023-05-13T18:51:34.914Z,2.90
2023-05-13T18:54:07.585Z,3.13
2023-05-13T18:56:34.375Z,2.88
2023-05-13T18:59:05.453Z,3.10
2023-05-13T19:01:32.416Z,3.47
2023-05-13T19:03:59.353Z,2.88
2023-05-13T19:06:26.411Z,3.25
2023-05-13T19:08:55.622Z,2.92
2023-05-13T19:11:26.347Z,3.13
2023-05-13T19:13:53.433Z,2.80
2023-05-13T19:16:21.638Z,2.70
2023-05-13T19:18:48.667Z,3.15
2023-05-13T19:21:15.617Z,3.60
2023-05-13T19:23:45.048Z,3.45
2023-05-13T19:26:11.962Z,3.20
2023-05-13T19:28:42.486Z,3.28
2023-05-13T19:31:09.545Z,3.13
2023-05-13T19:33:39.782Z,3.60
2023-05-13T19:36:09.018Z,3.28
2023-05-13T19:38:36.168Z,2.90
2023-05-13T19:41:04.912Z,3.05
2023-05-13T19:43:31.605Z,3.00
2023-05-13T19:45:58.662Z,3.25
2023-05-13T19:48:26.806Z,3.15
2023-05-13T19:50:55.354Z,4.13
2023-05-13T19:53:23.311Z,4.15
2023-05-13T19:55:50.295Z,3.17
2023-05-13T19:58:17.153Z,3.40
2023-05-13T20:00:46.640Z,3.20
2023-05-13T20:03:13.805Z,4.78
2023-05-13T20:05:43.929Z,3.60
2023-05-13T20:08:10.985Z,3.53
2023-05-13T20:10:37.857Z,3.60
2023-05-13T20:13:05.643Z,4.20
2023-05-13T20:15:36.668Z,4.07
2023-05-13T20:18:06.983Z,3.25
2023-05-13T20:20:34.117Z,3.10
2023-05-13T20:23:01.405Z,3.85
2023-05-13T20:25:28.256Z,3.60
2023-05-13T20:27:55.254Z,3.85
2023-05-13T20:30:23.042Z,3.47
2023-05-13T20:32:50.392Z,4.43
2023-05-13T20:35:17.267Z,3.42
2023-05-13T20:37:44.364Z,3.97
2023-05-13T20:40:11.593Z,3.38
2023-05-13T20:42:41.184Z,3.78
2023-05-13T20:45:08.824Z,3.17
2023-05-13T20:47:36.704Z,3.60
2023-05-13T20:50:04.042Z,4.00
2023-05-13T20:52:31.165Z,4.22
2023-05-13T20:55:00.954Z,4.43
2023-05-13T20:57:27.928Z,3.90
2023-05-13T20:59:54.945Z,3.85
2023-05-13T21:02:22.100Z,3.78
2023-05-13T21:04:48.970Z,3.58
2023-05-13T21:07:15.754Z,3.22
2023-05-13T21:09:42.770Z,3.58
2023-05-13T21:12:09.762Z,3.90
2023-05-13T21:14:36.672Z,4.28
2023-05-13T21:17:05.415Z,4.40
2023-05-13T21:19:32.218Z,4.60
2023-05-13T21:22:01.758Z,4.15
2023-05-13T21:24:28.795Z,4.07
2023-05-13T21:26:55.744Z,3.85
2023-05-13T21:29:23.112Z,3.95
2023-05-13T21:31:50.170Z,4.15
2023-05-13T21:34:17.210Z,4.25
2023-05-13T21:36:45.007Z,4.30
2023-05-13T21:39:12.412Z,4.10
2023-05-13T21:41:40.156Z,4.65
2023-05-13T21:44:10.522Z,4.32
2023-05-13T21:46:37.439Z,4.90
2023-05-13T21:49:05.624Z,4.10
2023-05-13T21:51:33.030Z,5.45
2023-05-13T21:54:00.453Z,4.47
2023-05-13T21:56:27.469Z,5.35
2023-05-13T21:58:54.336Z,4.38
2023-05-13T22:01:21.686Z,4.05
2023-05-13T22:03:48.720Z,4.57
2023-05-13T22:06:20.077Z,5.00
2023-05-13T22:08:47.207Z,4.18
2023-05-13T22:11:14.067Z,4.70
2023-05-13T22:13:41.286Z,4.72
2023-05-13T22:16:08.695Z,4.57
2023-05-13T22:18:38.161Z,5.53
2023-05-13T22:21:06.813Z,5.70
2023-05-13T22:23:34.332Z,4.53
2023-05-13T22:26:01.192Z,4.60
2023-05-13T22:28:28.199Z,4.30
2023-05-13T22:30:57.079Z,4.70
2023-05-13T22:33:24.123Z,5.00
2023-05-13T22:35:51.387Z,4.95
2023-05-13T22:38:20.099Z,5.30
2023-05-13T22:40:47.039Z,5.20
2023-05-13T22:43:13.771Z,4.90
2023-05-13T22:45:40.941Z,4.68
2023-05-13T22:48:08.443Z,5.05
2023-05-13T22:50:36.148Z,4.95
2023-05-13T22:53:03.152Z,4.93
2023-05-13T22:55:30.221Z,5.28
2023-05-13T22:57:57.031Z,4.28
2023-05-13T23:00:24.321Z,5.25
2023-05-13T23:02:51.538Z,5.20
2023-05-13T23:05:18.998Z,6.05
2023-05-13T23:07:45.856Z,5.78
2023-05-13T23:10:12.989Z,5.45
2023-05-13T23:12:39.946Z,5.40
2023-05-13T23:15:07.421Z,5.28
2023-05-13T23:17:35.557Z,6.10
2023-05-13T23:20:02.625Z,5.90
2023-05-13T23:22:29.715Z,5.43
2023-05-13T23:24:57.166Z,6.18
2023-05-13T23:27:26.569Z,5.60
2023-05-13T23:29:54.411Z,5.80
2023-05-13T23:32:21.521Z,5.10
2023-05-13T23:34:48.607Z,5.90
2023-05-13T23:37:15.780Z,6.05
2023-05-13T23:39:44.887Z,5.25
2023-05-13T23:42:11.769Z,5.80
2023-05-13T23:44:39.365Z,5.22
2023-05-13T23:47:06.137Z,5.95
2023-05-13T23:49:33.195Z,6.18
2023-05-13T23:52:00.354Z,5.60
2023-05-13T23:54:30.165Z,5.57
2023-05-13T23:56:57.087Z,6.22
2023-05-13T23:59:24.098Z,6.40
